PHKO METAR and TAF weather

Enter ICAO airport designator
Station Type Date Time Source
PHKO METAR 2019/04/22 17:53 UTC NOAA

PHKO 221753Z 00000KT 10SM SCT060 26/18 A3012 RMK AO2 SLP198 T02560178 10256 20222 53018


Station Type Date Time Source
PHKO Decoded METAR 2019/04/22 17:53 UTC NOAA

KONA INTERNATIONAL AIRPORT, HI, United States (PHKO) 19-44N 156-03W 27M
Apr 22, 2019 - 01:53 PM EDT / 2019.04.22 1753 UTC
Wind: Calm:0
Visibility: 10 mile(s):0
Sky conditions: partly cloudy
Temperature: 78.1 F (25.6 C)
Dew Point: 64.0 F (17.8 C)
Relative Humidity: 62%
Pressure (altimeter): 30.12 in. Hg (1019 hPa)
Pressure tendency: 0.05 inches (1.8 hPa) higher than three hours ago
ob: PHKO 221753Z 00000KT 10SM SCT060 26/18 A3012 RMK AO2 SLP198 T02560178 10256 20222 53018
cycle: 18

Station Type Date Time Source
PHKO TAF 2019/04/22 18:42 UTC NOAA

TAF PHKO 221741Z 2218/2318 VRB05KT P6SM SCT060
FM222000 25009KT P6SM FEW035 SCT060
FM230500 09005KT P6SM SCT035 SCT060

Example: see airport list